createdAt,value
2017-11-04T00:01:51.998Z,79.57
2017-11-04T00:04:18.183Z,74.63
2017-11-04T00:06:44.459Z,69.27
2017-11-04T00:09:10.651Z,79.57
2017-11-04T00:11:36.841Z,79.40
2017-11-04T00:14:03.037Z,72.30
2017-11-04T00:16:29.993Z,69.63
2017-11-04T00:18:56.155Z,72.23
2017-11-04T00:21:23.166Z,61.30
2017-11-04T00:23:49.341Z,69.23
2017-11-04T00:26:16.272Z,65.47
2017-11-04T00:28:42.450Z,71.13
2017-11-04T00:31:09.340Z,69.97
2017-11-04T00:33:35.506Z,67.77
2017-11-04T00:36:02.480Z,75.33
2017-11-04T00:38:28.661Z,70.67
2017-11-04T00:40:54.844Z,67.47
2017-11-04T00:43:21.797Z,72.73
2017-11-04T00:45:48.726Z,72.23
2017-11-04T00:48:15.657Z,64.73
2017-11-04T00:50:41.849Z,64.93
2017-11-04T00:53:08.013Z,65.97
2017-11-04T00:55:34.194Z,64.40
2017-11-04T00:58:00.401Z,67.97
2017-11-04T01:00:26.593Z,60.13
2017-11-04T01:02:52.784Z,74.43
2017-11-04T01:05:19.774Z,67.13
2017-11-04T01:07:46.013Z,73.50
2017-11-04T01:10:12.190Z,63.83
2017-11-04T01:12:46.028Z,61.77
2017-11-04T01:15:12.222Z,67.40
2017-11-04T01:17:38.397Z,59.80
2017-11-04T01:20:05.346Z,63.17
2017-11-04T01:22:31.517Z,63.93
2017-11-04T01:24:57.675Z,65.10
2017-11-04T01:27:23.907Z,72.13
2017-11-04T01:29:50.109Z,67.53
2017-11-04T01:32:16.279Z,64.43
2017-11-04T01:34:42.485Z,73.50
2017-11-04T01:37:08.666Z,60.73
2017-11-04T01:39:35.597Z,61.67
2017-11-04T01:42:01.799Z,66.90
2017-11-04T01:44:27.973Z,70.20
2017-11-04T01:46:54.913Z,67.10
2017-11-04T01:49:22.594Z,66.50
2017-11-04T01:51:49.535Z,63.50
2017-11-04T01:54:17.094Z,66.60
2017-11-04T01:56:43.569Z,68.30
2017-11-04T01:59:09.802Z,65.40
2017-11-04T02:01:35.981Z,69.07
2017-11-04T02:04:02.190Z,74.60
2017-11-04T02:06:28.356Z,68.03
2017-11-04T02:08:54.717Z,59.50
2017-11-04T02:11:21.695Z,60.93
2017-11-04T02:13:47.894Z,56.20
2017-11-04T02:16:15.553Z,62.77
2017-11-04T02:18:42.528Z,66.57
2017-11-04T02:21:09.460Z,73.23
2017-11-04T02:23:35.628Z,71.30
2017-11-04T02:26:02.570Z,61.57
2017-11-04T02:28:28.787Z,69.53
2017-11-04T02:30:55.019Z,66.90
2017-11-04T02:33:21.245Z,64.47
2017-11-04T02:35:48.205Z,68.20
2017-11-04T02:38:14.401Z,65.77
2017-11-04T02:40:40.621Z,69.83
2017-11-04T02:43:06.811Z,61.93
2017-11-04T02:45:33.742Z,65.83
2017-11-04T02:47:59.977Z,66.07
2017-11-04T02:50:26.164Z,59.00
2017-11-04T02:52:52.362Z,70.73
2017-11-04T02:55:19.365Z,66.90
2017-11-04T02:57:45.574Z,63.83
2017-11-04T03:00:12.528Z,74.60
2017-11-04T03:02:38.805Z,67.80
2017-11-04T03:05:04.985Z,71.10
2017-11-04T03:07:31.947Z,67.23
2017-11-04T03:09:58.777Z,62.50
2017-11-04T03:12:25.742Z,66.30
2017-11-04T03:14:51.957Z,65.30
2017-11-04T03:17:18.935Z,60.00
2017-11-04T03:19:45.117Z,64.87
2017-11-04T03:22:11.322Z,62.70
2017-11-04T03:24:37.534Z,62.83
2017-11-04T03:27:03.722Z,58.10
2017-11-04T03:29:29.929Z,61.83
2017-11-04T03:31:56.119Z,60.00
2017-11-04T03:34:23.020Z,59.80
2017-11-04T03:36:49.220Z,64.80
2017-11-04T03:39:15.453Z,70.73
2017-11-04T03:41:41.702Z,65.43
2017-11-04T03:44:07.865Z,61.23
2017-11-04T03:46:34.080Z,64.10
2017-11-04T03:49:00.272Z,62.50
2017-11-04T03:51:27.205Z,59.63
2017-11-04T03:53:54.160Z,59.07
2017-11-04T03:56:21.061Z,70.83
2017-11-04T03:58:47.228Z,68.80
2017-11-04T04:01:13.484Z,72.10
2017-11-04T04:03:40.453Z,68.77
2017-11-04T04:06:06.700Z,75.20
2017-11-04T04:08:32.903Z,69.70
2017-11-04T04:11:02.369Z,65.83
2017-11-04T04:13:28.574Z,68.07
2017-11-04T04:15:54.772Z,61.70
2017-11-04T04:18:20.953Z,67.20
2017-11-04T04:20:47.222Z,75.70
2017-11-04T04:23:13.432Z,66.60
2017-11-04T04:25:39.630Z,58.37
2017-11-04T04:28:06.582Z,66.57
2017-11-04T04:30:33.521Z,67.67
2017-11-04T04:32:59.705Z,59.73
2017-11-04T04:35:25.895Z,66.20
2017-11-04T04:37:52.853Z,65.70
2017-11-04T04:40:21.492Z,72.50
2017-11-04T04:42:47.695Z,65.57
2017-11-04T04:45:13.921Z,61.53
2017-11-04T04:47:40.097Z,66.00
2017-11-04T04:50:06.269Z,72.43
2017-11-04T04:52:33.201Z,63.50
2017-11-04T04:55:00.126Z,64.33
2017-11-04T04:57:26.333Z,66.47
2017-11-04T04:59:54.225Z,64.80
2017-11-04T05:02:20.389Z,65.27
2017-11-04T05:04:46.572Z,60.47
2017-11-04T05:07:12.825Z,68.37
2017-11-04T05:09:38.990Z,60.70
2017-11-04T05:12:05.497Z,66.87
2017-11-04T05:14:31.685Z,73.33
2017-11-04T05:16:58.596Z,62.50
2017-11-04T05:19:24.798Z,65.00
2017-11-04T05:21:50.998Z,63.10
2017-11-04T05:24:17.930Z,62.90
2017-11-04T05:26:46.552Z,69.93
2017-11-04T05:29:13.498Z,69.00
2017-11-04T05:31:40.405Z,70.03
2017-11-04T05:34:06.634Z,72.07
2017-11-04T05:36:32.843Z,66.63
2017-11-04T05:38:59.053Z,69.50
2017-11-04T05:41:25.248Z,65.90
2017-11-04T05:43:52.929Z,59.93
2017-11-04T05:46:19.874Z,58.47
2017-11-04T05:48:46.078Z,65.40
2017-11-04T05:51:12.334Z,65.33
2017-11-04T05:53:38.518Z,64.63
2017-11-04T05:56:06.577Z,62.83
2017-11-04T05:58:33.569Z,61.80
2017-11-04T06:00:59.754Z,72.37
2017-11-04T06:03:26.686Z,69.80
2017-11-04T06:05:52.903Z,58.27
2017-11-04T06:08:19.106Z,64.27
2017-11-04T06:10:45.279Z,70.13
2017-11-04T06:13:11.555Z,58.83
2017-11-04T06:15:38.455Z,71.50
2017-11-04T06:18:04.664Z,65.13
2017-11-04T06:20:30.880Z,63.73
2017-11-04T06:22:57.069Z,73.67
2017-11-04T06:25:24.085Z,67.00
2017-11-04T06:27:50.325Z,63.47
2017-11-04T06:30:16.534Z,65.43
2017-11-04T06:32:42.750Z,62.87
2017-11-04T06:35:08.985Z,61.50
2017-11-04T06:37:35.943Z,64.53
2017-11-04T06:40:02.177Z,65.10
2017-11-04T06:42:28.732Z,70.27
2017-11-04T06:44:54.994Z,70.03
2017-11-04T06:47:21.193Z,75.10
2017-11-04T06:49:48.163Z,67.40
2017-11-04T06:52:14.329Z,70.07
2017-11-04T06:54:40.522Z,60.90
2017-11-04T06:57:06.748Z,65.33
2017-11-04T06:59:33.669Z,71.43
2017-11-04T07:01:59.880Z,69.27
2017-11-04T07:04:26.093Z,67.97
2017-11-04T07:06:52.273Z,59.23
2017-11-04T07:09:19.201Z,75.40
2017-11-04T07:11:46.204Z,69.00
2017-11-04T07:14:12.458Z,59.73
2017-11-04T07:16:38.678Z,69.50
2017-11-04T07:19:05.647Z,70.13
2017-11-04T07:21:31.838Z,67.83
2017-11-04T07:23:58.013Z,64.20
2017-11-04T07:26:24.226Z,66.03
2017-11-04T07:28:50.430Z,76.23
2017-11-04T07:31:16.688Z,62.87
2017-11-04T07:33:43.652Z,63.00
2017-11-04T07:36:10.625Z,72.37
2017-11-04T07:38:36.861Z,70.50
2017-11-04T07:41:03.037Z,69.10
2017-11-04T07:43:29.972Z,64.20
2017-11-04T07:45:56.142Z,64.13
2017-11-04T07:48:23.064Z,63.07
2017-11-04T07:50:49.258Z,68.30
2017-11-04T07:53:15.485Z,83.20
2017-11-04T07:55:41.754Z,68.30
2017-11-04T07:58:07.957Z,75.47
2017-11-04T08:00:34.174Z,88.53
2017-11-04T08:03:00.365Z,90.60
2017-11-04T08:05:26.547Z,76.83
2017-11-04T08:07:52.741Z,74.60
2017-11-04T08:10:19.697Z,64.97
2017-11-04T08:12:46.637Z,69.43
2017-11-04T08:15:12.881Z,66.50
2017-11-04T08:17:39.097Z,71.47
2017-11-04T08:20:05.323Z,71.27
2017-11-04T08:22:31.504Z,72.80
2017-11-04T08:24:58.422Z,59.73
2017-11-04T08:27:24.635Z,64.10
2017-11-04T08:29:50.849Z,68.90
2017-11-04T08:32:17.084Z,69.27
2017-11-04T08:34:43.270Z,63.70
2017-11-04T08:37:10.210Z,75.10
2017-11-04T08:39:36.480Z,68.23
2017-11-04T08:42:03.465Z,69.37
2017-11-04T08:44:29.671Z,74.60
2017-11-04T08:46:55.895Z,71.70
2017-11-04T08:49:22.859Z,64.20
2017-11-04T08:51:49.074Z,61.53
2017-11-04T08:54:16.014Z,76.80
2017-11-04T08:56:42.242Z,97.30
2017-11-04T08:59:09.173Z,57.90
2017-11-04T09:01:35.473Z,66.77
2017-11-04T09:04:01.707Z,73.00
2017-11-04T09:06:27.909Z,77.00
2017-11-04T09:08:54.897Z,65.57
2017-11-04T09:11:21.123Z,63.00
2017-11-04T09:13:47.302Z,57.07
2017-11-04T09:16:13.728Z,56.70
2017-11-04T09:18:39.960Z,60.77
2017-11-04T09:21:06.233Z,72.00
2017-11-04T09:23:34.122Z,70.33
2017-11-04T09:26:01.033Z,68.20
2017-11-04T09:28:27.245Z,63.97
2017-11-04T09:30:55.297Z,65.30
2017-11-04T09:33:21.601Z,60.87
2017-11-04T09:35:48.116Z,64.03
2017-11-04T09:38:15.169Z,63.83
2017-11-04T09:40:41.353Z,63.00
2017-11-04T09:43:08.276Z,67.30
2017-11-04T09:45:34.510Z,54.70
2017-11-04T09:48:01.440Z,57.37
2017-11-04T09:50:27.641Z,56.80
2017-11-04T09:52:53.864Z,79.87
2017-11-04T09:55:20.087Z,55.13
2017-11-04T09:57:46.316Z,58.73
2017-11-04T10:00:13.572Z,66.40
2017-11-04T10:02:39.831Z,52.87
2017-11-04T10:05:06.018Z,60.57
2017-11-04T10:07:33.061Z,64.27
2017-11-04T10:09:59.228Z,65.83
2017-11-04T10:12:26.137Z,64.43
2017-11-04T10:14:52.380Z,59.13
2017-11-04T10:17:18.768Z,62.57
2017-11-04T10:19:44.990Z,66.60
2017-11-04T10:22:11.898Z,54.50
2017-11-04T10:24:38.080Z,64.53
2017-11-04T10:27:04.266Z,54.63
2017-11-04T10:29:31.247Z,59.57
2017-11-04T10:31:58.170Z,60.30
2017-11-04T10:34:25.126Z,63.97
2017-11-04T10:36:52.951Z,57.13
2017-11-04T10:39:19.158Z,68.40
2017-11-04T10:41:46.086Z,65.90
2017-11-04T10:44:13.125Z,61.03
2017-11-04T10:46:39.342Z,60.77
2017-11-04T10:49:05.536Z,64.30
2017-11-04T10:51:32.444Z,69.53
2017-11-04T10:53:58.661Z,63.13
2017-11-04T10:56:24.859Z,63.93
2017-11-04T10:58:52.054Z,57.07
2017-11-04T11:01:18.222Z,54.53
2017-11-04T11:03:44.495Z,52.17
2017-11-04T11:06:12.314Z,53.47
2017-11-04T11:08:39.990Z,61.47
2017-11-04T11:11:06.191Z,56.70
2017-11-04T11:13:34.066Z,60.80
2017-11-04T11:16:00.289Z,65.07
2017-11-04T11:18:26.721Z,55.47
2017-11-04T11:20:52.938Z,53.60
2017-11-04T11:23:21.907Z,55.97
2017-11-04T11:25:48.492Z,47.57
2017-11-04T11:28:14.704Z,57.60
2017-11-04T11:30:40.936Z,56.63
2017-11-04T11:33:08.081Z,51.77
2017-11-04T11:35:35.905Z,52.60
2017-11-04T11:38:02.072Z,52.17
2017-11-04T11:40:28.225Z,54.23
2017-11-04T11:42:55.193Z,52.23
2017-11-04T11:45:21.377Z,50.43
2017-11-04T11:47:47.544Z,51.27
2017-11-04T11:50:14.473Z,50.47
2017-11-04T11:52:40.649Z,50.03
2017-11-04T11:55:06.850Z,54.20
2017-11-04T11:57:33.973Z,57.13
2017-11-04T12:00:00.276Z,50.47
2017-11-04T12:02:26.565Z,50.40
2017-11-04T12:04:53.711Z,51.03
2017-11-04T12:07:19.903Z,48.30
2017-11-04T12:09:46.273Z,48.33
2017-11-04T12:12:12.554Z,53.70
2017-11-04T12:14:38.769Z,49.83
2017-11-04T12:17:05.677Z,53.67
2017-11-04T12:19:31.959Z,49.87
2017-11-04T12:21:58.861Z,53.03
2017-11-04T12:24:25.120Z,54.70
2017-11-04T12:26:51.393Z,51.83
2017-11-04T12:29:18.390Z,52.43
2017-11-04T12:31:44.605Z,56.00
2017-11-04T12:34:10.809Z,56.07
2017-11-04T12:36:37.946Z,56.60
2017-11-04T12:39:04.197Z,54.40
2017-11-04T12:41:31.135Z,54.00
2017-11-04T12:43:58.124Z,58.93
2017-11-04T12:46:24.345Z,57.23
2017-11-04T12:48:51.281Z,58.80
2017-11-04T12:51:18.218Z,62.80
2017-11-04T12:53:44.479Z,57.27
2017-11-04T12:56:10.801Z,60.67
2017-11-04T12:58:36.980Z,63.10
2017-11-04T13:01:03.183Z,65.33
2017-11-04T13:03:29.453Z,60.27
2017-11-04T13:05:55.657Z,57.77
2017-11-04T13:08:21.851Z,64.53
2017-11-04T13:10:48.845Z,67.27
2017-11-04T13:13:15.041Z,59.90
2017-11-04T13:15:41.958Z,61.03
2017-11-04T13:18:09.042Z,64.00
2017-11-04T13:20:35.342Z,67.30
2017-11-04T13:23:01.517Z,70.73
2017-11-04T13:25:30.209Z,73.63
2017-11-04T13:27:58.441Z,66.00
2017-11-04T13:30:25.416Z,76.70
2017-11-04T13:32:52.453Z,67.83
2017-11-04T13:35:18.840Z,66.17
2017-11-04T13:37:45.096Z,57.40
2017-11-04T13:40:11.297Z,62.90
2017-11-04T13:42:38.220Z,66.13
2017-11-04T13:45:05.160Z,71.30
2017-11-04T13:47:32.178Z,67.07
2017-11-04T13:49:58.366Z,63.57
2017-11-04T13:52:25.438Z,71.40
2017-11-04T13:54:51.681Z,69.03
2017-11-04T13:57:17.893Z,73.63
2017-11-04T13:59:44.113Z,61.67
2017-11-04T14:02:10.354Z,55.73
2017-11-04T14:04:36.614Z,59.43
2017-11-04T14:07:02.801Z,72.00
2017-11-04T14:09:29.973Z,77.03
2017-11-04T14:11:56.184Z,66.90
2017-11-04T14:14:22.409Z,73.53
2017-11-04T14:16:50.570Z,69.70
2017-11-04T14:19:18.142Z,80.87
2017-11-04T14:21:45.139Z,72.07
2017-11-04T14:24:12.292Z,65.73
2017-11-04T14:26:38.472Z,71.27
2017-11-04T14:29:05.415Z,66.00
2017-11-04T14:31:32.369Z,71.97
2017-11-04T14:34:00.088Z,69.53
2017-11-04T14:36:27.108Z,70.37
2017-11-04T14:38:53.402Z,61.00
2017-11-04T14:41:21.170Z,70.67
2017-11-04T14:43:47.705Z,72.93
2017-11-04T14:46:14.761Z,65.43
2017-11-04T14:48:43.360Z,56.33
2017-11-04T14:51:10.397Z,58.80
2017-11-04T14:53:37.541Z,60.53
2017-11-04T14:56:10.790Z,61.80
2017-11-04T14:58:38.370Z,67.93
2017-11-04T15:01:04.612Z,65.47
2017-11-04T15:03:31.538Z,60.03
2017-11-04T15:05:58.673Z,55.67
2017-11-04T15:08:25.319Z,60.63
2017-11-04T15:10:51.477Z,57.20
2017-11-04T15:13:19.504Z,68.90
2017-11-04T15:15:45.717Z,66.00
2017-11-04T15:18:11.929Z,66.37
2017-11-04T15:20:38.207Z,61.03
2017-11-04T15:23:04.509Z,59.00
2017-11-04T15:25:30.816Z,62.07
2017-11-04T15:30:30.241Z,63.07
2017-11-04T15:32:58.170Z,64.10
2017-11-04T15:35:25.222Z,60.70
2017-11-04T15:37:52.216Z,59.47
2017-11-04T15:40:19.163Z,55.47
2017-11-04T15:42:45.354Z,56.97
2017-11-04T15:45:11.537Z,63.60
2017-11-04T15:47:38.553Z,63.77
2017-11-04T15:50:04.758Z,64.47
2017-11-04T15:52:30.971Z,61.80
2017-11-04T15:54:58.725Z,66.40
2017-11-04T15:57:25.017Z,61.53
2017-11-04T15:59:51.202Z,62.03
2017-11-04T16:02:18.114Z,61.00
2017-11-04T16:04:44.305Z,58.80
2017-11-04T16:07:11.224Z,56.13
2017-11-04T16:09:37.438Z,71.30
2017-11-04T16:12:03.641Z,62.63
2017-11-04T16:14:29.834Z,66.67
2017-11-04T16:16:56.812Z,63.70
2017-11-04T16:19:22.989Z,61.30
2017-11-04T16:21:49.174Z,60.70
2017-11-04T16:24:15.668Z,66.40
2017-11-04T16:26:41.848Z,68.53
2017-11-04T16:29:08.040Z,56.23
2017-11-04T16:31:34.236Z,72.03
2017-11-04T16:34:00.449Z,61.57
2017-11-04T16:36:27.356Z,69.80
2017-11-04T16:38:54.335Z,61.13
2017-11-04T16:41:21.295Z,71.77
2017-11-04T16:43:48.225Z,64.37
2017-11-04T16:46:15.274Z,66.27
2017-11-04T16:48:41.448Z,70.83
2017-11-04T16:51:07.625Z,71.03
2017-11-04T16:53:33.851Z,70.47
2017-11-04T16:56:00.046Z,73.03
2017-11-04T16:58:26.218Z,71.40
2017-11-04T17:00:52.394Z,62.97
2017-11-04T17:03:19.307Z,68.10
2017-11-04T17:05:45.485Z,67.60
2017-11-04T17:08:11.721Z,61.83
2017-11-04T17:10:37.905Z,57.60
2017-11-04T17:13:04.085Z,69.17
2017-11-04T17:15:31.018Z,68.03
2017-11-04T17:17:57.933Z,69.57
2017-11-04T17:20:24.112Z,80.30
2017-11-04T17:22:51.038Z,63.50
2017-11-04T17:25:17.325Z,64.80
2017-11-04T17:27:43.510Z,69.53
2017-11-04T17:30:09.737Z,67.23
2017-11-04T17:32:35.892Z,58.37
2017-11-04T17:35:02.789Z,62.83
2017-11-04T17:37:28.980Z,58.77
2017-11-04T17:39:55.149Z,61.67
2017-11-04T17:42:21.324Z,59.17
2017-11-04T17:44:48.341Z,75.60
2017-11-04T17:47:14.496Z,53.67
2017-11-04T17:49:40.696Z,60.73
2017-11-04T17:52:07.658Z,59.60
2017-11-04T17:54:33.865Z,65.37
2017-11-04T17:57:00.054Z,59.07
2017-11-04T17:59:26.206Z,58.20
2017-11-04T18:01:53.877Z,60.67
2017-11-04T18:04:20.814Z,61.00
2017-11-04T18:06:47.809Z,55.27
2017-11-04T18:09:14.011Z,55.50
2017-11-04T18:11:40.938Z,54.37
2017-11-04T18:14:08.081Z,56.37
2017-11-04T18:16:34.260Z,60.30
2017-11-04T18:19:00.447Z,70.03
2017-11-04T18:21:26.781Z,61.90
2017-11-04T18:23:52.957Z,61.97
2017-11-04T18:26:19.973Z,56.03
2017-11-04T18:28:46.205Z,56.53
2017-11-04T18:31:12.417Z,61.93
2017-11-04T18:33:38.609Z,57.03
2017-11-04T18:36:05.578Z,64.37
2017-11-04T18:38:31.797Z,60.93
2017-11-04T18:40:57.965Z,54.33
2017-11-04T18:43:25.034Z,63.43
2017-11-04T18:45:51.209Z,57.87
2017-11-04T18:48:18.161Z,61.37
2017-11-04T18:50:45.122Z,59.63
2017-11-04T18:53:12.063Z,61.57
2017-11-04T18:55:39.008Z,59.33
2017-11-04T18:58:06.038Z,62.43
2017-11-04T19:00:32.267Z,52.43
2017-11-04T19:02:58.442Z,57.60
2017-11-04T19:05:25.392Z,57.13
2017-11-04T19:07:51.573Z,55.90
2017-11-04T19:10:17.748Z,58.47
2017-11-04T19:12:44.682Z,60.93
2017-11-04T19:15:10.870Z,59.20
2017-11-04T19:17:37.030Z,56.67
2017-11-04T19:20:03.209Z,57.43
2017-11-04T19:22:30.137Z,60.13
2017-11-04T19:24:56.312Z,58.10
2017-11-04T19:27:22.582Z,62.60
2017-11-04T19:29:48.757Z,57.57
2017-11-04T19:32:15.729Z,58.87
2017-11-04T19:34:42.114Z,56.73
2017-11-04T19:37:08.282Z,55.77
2017-11-04T19:39:35.210Z,49.93
2017-11-04T19:42:01.414Z,53.30
2017-11-04T19:44:27.587Z,63.00
2017-11-04T19:46:53.781Z,62.90
2017-11-04T19:49:19.957Z,59.00
2017-11-04T19:51:46.909Z,54.67
2017-11-04T19:54:13.101Z,54.93
2017-11-04T19:56:39.281Z,61.53
2017-11-04T19:59:05.525Z,56.27
2017-11-04T20:01:32.455Z,58.73
2017-11-04T20:03:58.669Z,52.70
2017-11-04T20:06:24.835Z,51.10
2017-11-04T20:08:51.757Z,55.60
2017-11-04T20:11:17.945Z,54.17
2017-11-04T20:13:44.160Z,58.70
2017-11-04T20:16:11.073Z,62.83
2017-11-04T20:18:37.388Z,66.63
2017-11-04T20:21:03.555Z,55.27
2017-11-04T20:23:29.728Z,60.80
2017-11-04T20:25:56.659Z,53.57
2017-11-04T20:28:23.647Z,52.63
2017-11-04T20:30:49.824Z,51.30
2017-11-04T20:33:16.017Z,58.97
2017-11-04T20:35:42.185Z,50.37
2017-11-04T20:38:08.353Z,56.23
2017-11-04T20:40:35.290Z,64.03
2017-11-04T20:43:02.204Z,52.07
2017-11-04T20:45:28.381Z,58.90
2017-11-04T20:47:55.297Z,54.17
2017-11-04T20:50:21.474Z,49.17
2017-11-04T20:52:47.640Z,46.90
2017-11-04T20:55:13.831Z,49.30
2017-11-04T20:57:40.757Z,60.37
2017-11-04T21:00:07.660Z,51.33
2017-11-04T21:02:33.879Z,53.63
2017-11-04T21:05:00.044Z,53.70
2017-11-04T21:07:26.217Z,53.63
2017-11-04T21:09:53.182Z,56.17
2017-11-04T21:12:20.089Z,58.03
2017-11-04T21:14:46.252Z,46.23
2017-11-04T21:17:12.486Z,54.67
2017-11-04T21:19:39.513Z,49.57
2017-11-04T21:22:06.529Z,47.97
2017-11-04T21:24:32.884Z,44.57
2017-11-04T21:27:00.677Z,47.40
2017-11-04T21:29:28.030Z,49.67
2017-11-04T21:31:54.405Z,43.57
2017-11-04T21:34:20.736Z,41.00
2017-11-04T21:36:47.064Z,46.77
2017-11-04T21:39:13.411Z,44.07
2017-11-04T21:41:39.697Z,46.93
2017-11-04T21:44:06.001Z,54.50
2017-11-04T21:46:32.300Z,42.93
2017-11-04T21:48:58.631Z,44.27
2017-11-04T21:51:24.908Z,41.70
2017-11-04T21:53:51.140Z,42.07
2017-11-04T21:56:18.122Z,44.10
2017-11-04T21:58:44.304Z,40.93
2017-11-04T22:01:10.481Z,38.10
2017-11-04T22:03:36.661Z,33.03
2017-11-04T22:06:03.622Z,36.33
2017-11-04T22:08:30.030Z,40.93
2017-11-04T22:10:56.345Z,37.13
2017-11-04T22:13:22.669Z,35.17
2017-11-04T22:15:49.000Z,42.17
2017-11-04T22:18:15.364Z,39.47
2017-11-04T22:20:42.351Z,34.87
2017-11-04T22:23:09.291Z,36.23
2017-11-04T22:25:36.207Z,31.37
2017-11-04T22:28:02.390Z,39.00
2017-11-04T22:30:28.666Z,41.03
2017-11-04T22:32:54.862Z,38.00
2017-11-04T22:35:21.052Z,33.73
2017-11-04T22:37:47.261Z,40.00
2017-11-04T22:40:13.433Z,38.97
2017-11-04T22:42:39.602Z,39.93
2017-11-04T22:45:06.555Z,32.90
2017-11-04T22:47:33.470Z,35.93
2017-11-04T22:49:59.659Z,35.17
2017-11-04T22:52:25.846Z,31.23
2017-11-04T22:54:51.997Z,41.63
2017-11-04T22:57:18.210Z,47.40
2017-11-04T22:59:44.413Z,38.53
2017-11-04T23:02:10.576Z,36.30
2017-11-04T23:04:36.733Z,40.90
2017-11-04T23:07:02.926Z,31.33
2017-11-04T23:09:29.093Z,38.23
2017-11-04T23:11:55.264Z,36.07
2017-11-04T23:14:22.178Z,32.00
2017-11-04T23:16:48.336Z,36.70
2017-11-04T23:19:15.241Z,36.50
2017-11-04T23:21:41.439Z,39.83
2017-11-04T23:24:07.594Z,36.00
2017-11-04T23:26:33.763Z,39.73
2017-11-04T23:28:59.977Z,42.30
2017-11-04T23:31:26.194Z,35.87
2017-11-04T23:33:52.349Z,36.00
2017-11-04T23:36:18.542Z,45.40
2017-11-04T23:38:44.729Z,35.87
2017-11-04T23:41:12.382Z,35.60
2017-11-04T23:43:39.301Z,35.20
2017-11-04T23:46:05.465Z,39.37
2017-11-04T23:48:31.622Z,38.13
2017-11-04T23:50:58.546Z,35.73
2017-11-04T23:53:24.713Z,32.37
2017-11-04T23:55:51.654Z,34.50
2017-11-04T23:58:17.836Z,42.90
